Ocosta, Washington
Current Conditions -  °F | °C
As of 6:44 AM on Sunday 23 Nov 2014 (Local Time) from KHQM Reporting Station
Light Rain Light Rain  
Wind Chill: 53°   Ceiling: 2400
Heat Index: 53°   Visibility: 7mi
Dew Point: 49°   Wind: 36mph
Humidity: 86%   Direction: 180°S
Pressure: 30.08"   Gusts: 44mph
Location:  47.1445°N, 123.771°W
Report Text: KHQM 231444Z AUTO 18031G38KT 7SM -RA BKN024 BKN030 OVC050 12/09 A3008 RMK AO2 PK WND 19039/1425 LTG DSNT W AND NW P0005 T01170094
Loading
Personal Weather Stations






























Interactive Weather Map New forecast layout! Learn more

10-Day Weather Forecast

Advertisements
Track Severe Weather on mobile